Time;durP1;ratioP1;P1;durP2;ratioP2;P2;SDS_P1;SDS_P2;PMS_P1;PMS_P2;Temp;Humidity;BMP_temperature;BMP_pressure;BME280_temperature;BME280_humidity;BME280_pressure;Samples;Min_cycle;Max_cycle;Signal;HPM_P1;HPM_P2
2021/10/13 00:00:08;;;;;;;4.77;2.73;;;;;;;;;;5117896;28;20205;-62
2021/10/13 00:02:36;;;;;;;4.23;2.17;;;;;;;;;;5117591;28;20264;-62
2021/10/13 00:05:04;;;;;;;4.03;2.20;;;;;;;;;;5118099;28;20315;-62
2021/10/13 00:07:33;;;;;;;3.63;2.43;;;;;;;;;;5117603;28;20695;-62
2021/10/13 00:10:01;;;;;;;4.57;2.53;;;;;;;;;;5117645;28;20552;-62
2021/10/13 00:12:32;;;;;;;3.97;2.37;;;;;;;;;;5117795;28;20205;-62
2021/10/13 00:15:00;;;;;;;3.03;2.30;;;;;;;;;;5117506;28;20735;-62
2021/10/13 00:17:28;;;;;;;3.57;2.60;;;;;;;;;;5117352;28;20227;-62
2021/10/13 00:19:57;;;;;;;4.60;2.40;;;;;;;;;;5117729;28;20209;-62
2021/10/13 00:22:25;;;;;;;4.50;2.70;;;;;;;;;;5117699;28;20204;-62
2021/10/13 00:24:53;;;;;;;4.43;2.30;;;;;;;;;;5119510;28;20690;-62
2021/10/13 00:27:21;;;;;;;5.43;2.27;;;;;;;;;;5121470;28;20203;-62
2021/10/13 00:29:50;;;;;;;3.83;2.83;;;;;;;;;;5121254;28;20566;-62
2021/10/13 00:32:18;;;;;;;7.70;2.50;;;;;;;;;;5120915;28;20205;-62
2021/10/13 00:34:46;;;;;;;3.77;2.63;;;;;;;;;;5121113;28;20227;-62
2021/10/13 00:37:14;;;;;;;6.27;2.53;;;;;;;;;;5120963;28;20224;-62
2021/10/13 00:39:42;;;;;;;4.90;2.70;;;;;;;;;;5121011;28;20232;-62
2021/10/13 00:42:10;;;;;;;4.37;2.37;;;;;;;;;;5120900;28;20204;-62
2021/10/13 00:44:38;;;;;;;6.63;2.30;;;;;;;;;;5120785;28;20247;-62
2021/10/13 00:47:07;;;;;;;3.50;2.57;;;;;;;;;;5120669;28;20560;-62
2021/10/13 00:49:35;;;;;;;3.90;2.97;;;;;;;;;;5120603;28;20569;-62
2021/10/13 00:52:04;;;;;;;3.73;2.37;;;;;;;;;;5121159;28;20209;-62
2021/10/13 00:54:32;;;;;;;5.37;2.67;;;;;;;;;;5120867;28;20225;-62
2021/10/13 00:57:00;;;;;;;4.57;2.40;;;;;;;;;;5120927;28;20229;-62
2021/10/13 00:59:28;;;;;;;9.43;2.87;;;;;;;;;;5120933;28;20232;-62
2021/10/13 01:01:58;;;;;;;3.97;2.50;;;;;;;;;;5120553;28;20211;-62
2021/10/13 01:04:37;;;;;;;7.27;2.60;;;;;;;;;;5120059;28;20704;-62
2021/10/13 01:07:11;;;;;;;3.83;2.43;;;;;;;;;;5120732;28;20215;-62
2021/10/13 01:09:44;;;;;;;3.37;2.10;;;;;;;;;;5120616;28;20580;-62
2021/10/13 01:12:18;;;;;;;3.63;2.53;;;;;;;;;;5120530;28;20207;-62
2021/10/13 01:14:47;;;;;;;4.97;2.60;;;;;;;;;;5120881;28;20224;-62
2021/10/13 01:17:20;;;;;;;8.10;2.60;;;;;;;;;;5120050;28;20227;-62
2021/10/13 01:19:56;;;;;;;2.80;2.43;;;;;;;;;;5120374;28;20207;-62
2021/10/13 01:22:37;;;;;;;4.90;2.50;;;;;;;;;;5120516;28;20205;-62
2021/10/13 01:25:11;;;;;;;4.23;2.30;;;;;;;;;;5120257;28;20304;-62
2021/10/13 01:27:50;;;;;;;2.77;2.23;;;;;;;;;;5120115;28;20652;-62
2021/10/13 01:30:19;;;;;;;5.03;2.47;;;;;;;;;;5119955;28;20246;-62
2021/10/13 01:32:53;;;;;;;2.87;2.27;;;;;;;;;;5119680;28;20548;-62
2021/10/13 01:35:21;;;;;;;6.97;2.80;;;;;;;;;;5119117;28;20308;-62
2021/10/13 01:37:52;;;;;;;4.30;2.20;;;;;;;;;;5119964;28;20233;-62
2021/10/13 01:40:20;;;;;;;6.43;2.50;;;;;;;;;;5119951;28;20597;-62
2021/10/13 01:42:51;;;;;;;2.70;2.17;;;;;;;;;;5120083;28;20209;-62
2021/10/13 01:45:19;;;;;;;7.87;2.33;;;;;;;;;;5119787;28;20228;-62
2021/10/13 01:47:48;;;;;;;4.13;2.23;;;;;;;;;;5119547;28;20197;-62
2021/10/13 01:50:17;;;;;;;4.47;2.33;;;;;;;;;;5120074;28;20245;-62
2021/10/13 01:52:48;;;;;;;3.33;2.33;;;;;;;;;;5119627;28;20585;-62
2021/10/13 01:55:16;;;;;;;3.87;2.40;;;;;;;;;;5119823;28;20229;-62
2021/10/13 01:57:46;;;;;;;5.90;2.23;;;;;;;;;;5119367;28;20227;-62
2021/10/13 02:00:16;;;;;;;7.67;2.40;;;;;;;;;;5119649;27;20215;-62
2021/10/13 02:02:45;;;;;;;4.17;2.30;;;;;;;;;;5119087;28;20577;-62
2021/10/13 02:05:14;;;;;;;4.77;2.20;;;;;;;;;;5119367;28;20232;-62
2021/10/13 02:07:43;;;;;;;4.27;2.23;;;;;;;;;;5119447;28;20200;-62
2021/10/13 02:10:14;;;;;;;4.37;2.50;;;;;;;;;;5119303;28;20292;-62
2021/10/13 02:12:43;;;;;;;6.27;2.60;;;;;;;;;;5119745;28;20716;-62
2021/10/13 02:15:12;;;;;;;4.27;2.33;;;;;;;;;;5119433;27;20231;-62
2021/10/13 02:17:43;;;;;;;3.33;2.20;;;;;;;;;;5119096;28;20220;-62
2021/10/13 02:20:11;;;;;;;3.87;2.30;;;;;;;;;;5118936;28;20204;-62
2021/10/13 02:22:41;;;;;;;7.23;2.17;;;;;;;;;;5119064;28;20660;-62
2021/10/13 02:25:09;;;;;;;10.93;2.70;;;;;;;;;;5119256;28;20226;-62
2021/10/13 02:27:41;;;;;;;4.90;2.07;;;;;;;;;;5119144;28;20633;-62
2021/10/13 02:30:09;;;;;;;5.70;2.43;;;;;;;;;;5119190;27;20215;-62
2021/10/13 02:32:37;;;;;;;6.07;2.90;;;;;;;;;;5118902;28;20213;-62
2021/10/13 02:35:07;;;;;;;6.57;2.50;;;;;;;;;;5118704;28;20221;-62
2021/10/13 02:37:35;;;;;;;5.00;2.67;;;;;;;;;;5118836;28;20235;-62
2021/10/13 02:40:04;;;;;;;5.57;2.47;;;;;;;;;;5118507;28;20245;-62
2021/10/13 02:42:33;;;;;;;2.57;2.30;;;;;;;;;;5118900;28;20207;-62
2021/10/13 02:45:01;;;;;;;2.80;2.17;;;;;;;;;;5118750;28;20294;-62
2021/10/13 02:47:32;;;;;;;4.20;2.20;;;;;;;;;;5118266;28;20285;-62
2021/10/13 02:50:03;;;;;;;3.77;2.20;;;;;;;;;;5118923;28;20192;-62
2021/10/13 02:52:34;;;;;;;3.33;2.50;;;;;;;;;;5118461;28;20230;-62
2021/10/13 02:55:03;;;;;;;5.43;2.50;;;;;;;;;;5118282;28;20286;-62
2021/10/13 02:57:34;;;;;;;4.83;2.40;;;;;;;;;;5118395;28;20713;-62
2021/10/13 03:00:04;;;;;;;3.97;2.40;;;;;;;;;;5118761;28;20682;-62
2021/10/13 03:02:33;;;;;;;5.97;2.77;;;;;;;;;;5118193;27;20211;-62
2021/10/13 03:05:02;;;;;;;5.63;4.27;;;;;;;;;;5117481;28;20252;-62
2021/10/13 03:07:35;;;;;;;4.53;2.50;;;;;;;;;;5116807;28;20246;-62
2021/10/13 03:10:05;;;;;;;5.93;2.53;;;;;;;;;;5118348;28;20694;-62
2021/10/13 03:12:42;;;;;;;3.63;2.37;;;;;;;;;;5117883;28;20543;-61
2021/10/13 03:15:11;;;;;;;5.57;3.10;;;;;;;;;;5116772;28;20231;-62
2021/10/13 03:17:40;;;;;;;4.83;2.90;;;;;;;;;;5099457;28;20223;-62
2021/10/13 03:20:09;;;;;;;4.17;2.90;;;;;;;;;;5097868;28;20274;-62
2021/10/13 03:22:40;;;;;;;5.67;3.20;;;;;;;;;;5115072;28;20200;-62
2021/10/13 03:25:08;;;;;;;8.87;3.93;;;;;;;;;;5116388;28;20224;-62
2021/10/13 03:27:36;;;;;;;4.53;2.90;;;;;;;;;;5116988;28;20554;-61
2021/10/13 03:30:04;;;;;;;4.97;2.87;;;;;;;;;;5117695;28;20288;-62
2021/10/13 03:32:32;;;;;;;5.27;2.83;;;;;;;;;;5116053;28;20228;-62
2021/10/13 03:35:00;;;;;;;3.07;2.33;;;;;;;;;;5116547;28;20220;-61
2021/10/13 03:37:28;;;;;;;6.87;3.23;;;;;;;;;;5116578;28;20299;-62
2021/10/13 03:39:57;;;;;;;9.37;5.07;;;;;;;;;;5116403;28;20225;-62
2021/10/13 03:42:25;;;;;;;7.73;2.90;;;;;;;;;;5116592;28;20204;-62
2021/10/13 03:44:53;;;;;;;6.03;2.70;;;;;;;;;;5116480;28;20225;-62
2021/10/13 03:47:21;;;;;;;5.40;3.13;;;;;;;;;;5116313;28;20200;-62
2021/10/13 03:49:49;;;;;;;5.60;3.37;;;;;;;;;;5116603;28;20197;-62
2021/10/13 03:52:17;;;;;;;3.17;2.87;;;;;;;;;;5116867;28;20193;-62
2021/10/13 03:54:45;;;;;;;6.33;2.63;;;;;;;;;;5116399;28;20716;-62
2021/10/13 03:57:14;;;;;;;4.90;3.17;;;;;;;;;;5116806;28;20201;-62
2021/10/13 03:59:42;;;;;;;6.17;3.13;;;;;;;;;;5116375;28;20682;-62
2021/10/13 04:02:11;;;;;;;3.87;3.20;;;;;;;;;;5118409;28;20581;-62
2021/10/13 04:04:40;;;;;;;5.07;3.00;;;;;;;;;;5119366;28;20255;-62
2021/10/13 04:07:08;;;;;;;7.87;3.20;;;;;;;;;;5120210;28;20247;-62
2021/10/13 04:09:36;;;;;;;5.43;2.60;;;;;;;;;;5120279;28;20653;-62
2021/10/13 04:12:04;;;;;;;5.57;2.80;;;;;;;;;;5120403;28;20211;-62
2021/10/13 04:14:33;;;;;;;6.37;3.00;;;;;;;;;;5117728;28;20220;-62
2021/10/13 04:17:01;;;;;;;6.67;3.30;;;;;;;;;;5120119;28;20200;-62
2021/10/13 04:19:30;;;;;;;5.70;2.87;;;;;;;;;;5120056;28;20311;-62
2021/10/13 04:21:58;;;;;;;4.17;3.03;;;;;;;;;;5120282;28;20280;-62
2021/10/13 04:24:26;;;;;;;6.83;3.10;;;;;;;;;;5120311;28;20217;-62
2021/10/13 04:26:54;;;;;;;10.17;4.17;;;;;;;;;;5117806;28;20283;-62
2021/10/13 04:29:21;;;;;;;8.77;3.63;;;;;;;;;;5119970;27;20197;-62
2021/10/13 04:31:51;;;;;;;10.27;4.57;;;;;;;;;;5118343;28;20205;-62
2021/10/13 04:34:19;;;;;;;6.83;3.80;;;;;;;;;;5113135;28;20221;-62
2021/10/13 04:36:47;;;;;;;8.87;2.93;;;;;;;;;;5113815;28;20197;-62
2021/10/13 04:39:15;;;;;;;6.30;3.23;;;;;;;;;;5114902;27;20235;-62
2021/10/13 04:41:43;;;;;;;8.17;3.27;;;;;;;;;;5120984;28;20205;-62
2021/10/13 04:44:11;;;;;;;8.50;3.03;;;;;;;;;;5121106;28;20220;-62
2021/10/13 04:46:39;;;;;;;7.80;3.00;;;;;;;;;;5120942;28;20215;-62
2021/10/13 04:49:08;;;;;;;5.00;2.70;;;;;;;;;;5120992;28;20205;-62
2021/10/13 04:51:36;;;;;;;3.87;2.97;;;;;;;;;;5107569;28;20208;-62
2021/10/13 04:54:04;;;;;;;6.07;3.07;;;;;;;;;;5121031;28;20282;-62
2021/10/13 04:56:32;;;;;;;4.50;2.80;;;;;;;;;;5121097;28;20272;-62
2021/10/13 04:59:00;;;;;;;8.57;2.90;;;;;;;;;;5120813;28;20224;-62
2021/10/13 05:01:28;;;;;;;4.30;2.87;;;;;;;;;;5120728;28;20204;-62
2021/10/13 05:03:56;;;;;;;8.47;3.80;;;;;;;;;;5120547;28;20229;-62
2021/10/13 05:06:26;;;;;;;3.97;3.33;;;;;;;;;;5120554;28;20207;-62
2021/10/13 05:08:53;;;;;;;6.77;2.97;;;;;;;;;;5120298;28;20201;-62
2021/10/13 05:11:21;;;;;;;6.17;3.20;;;;;;;;;;5120971;28;20205;-62
2021/10/13 05:13:50;;;;;;;6.23;3.30;;;;;;;;;;5125278;27;20216;-62
2021/10/13 05:16:17;;;;;;;7.30;3.10;;;;;;;;;;5128433;27;20208;-62
2021/10/13 05:18:46;;;;;;;4.63;3.20;;;;;;;;;;5121725;27;20231;-63
2021/10/13 05:21:41;;;;;;;7.00;3.23;;;;;;;;;;5120278;28;20291;-62
2021/10/13 05:24:11;;;;;;;7.27;3.10;;;;;;;;;;5120321;28;20229;-62
2021/10/13 05:26:39;;;;;;;6.17;3.43;;;;;;;;;;5119897;28;20578;-61
2021/10/13 05:29:07;;;;;;;5.23;2.97;;;;;;;;;;5120279;28;20201;-61
2021/10/13 05:31:35;;;;;;;8.20;3.33;;;;;;;;;;5119726;28;20781;-61
2021/10/13 05:34:03;;;;;;;5.33;2.90;;;;;;;;;;5120013;28;20225;-60
2021/10/13 05:36:31;;;;;;;6.33;3.40;;;;;;;;;;5119745;28;20205;-61
2021/10/13 05:38:59;;;;;;;4.37;2.73;;;;;;;;;;5119827;28;20252;-61
2021/10/13 05:41:29;;;;;;;5.37;2.77;;;;;;;;;;5120034;28;20213;-61
2021/10/13 05:43:57;;;;;;;6.80;2.93;;;;;;;;;;5119666;28;20243;-61
2021/10/13 05:46:25;;;;;;;4.47;2.90;;;;;;;;;;5119800;28;20240;-61
2021/10/13 05:48:53;;;;;;;5.07;2.87;;;;;;;;;;5119327;28;20201;-62
2021/10/13 05:51:21;;;;;;;6.37;2.80;;;;;;;;;;5119652;28;20254;-61
2021/10/13 05:53:49;;;;;;;6.97;3.00;;;;;;;;;;5119604;28;20224;-61
2021/10/13 05:56:17;;;;;;;2.20;2.07;;;;;;;;;;5119763;28;20207;-61
2021/10/13 05:58:52;;;;;;;3.73;2.50;;;;;;;;;;5119547;28;20695;-62
2021/10/13 06:01:20;;;;;;;5.73;2.70;;;;;;;;;;5119558;28;20208;-61
2021/10/13 06:03:49;;;;;;;5.43;2.20;;;;;;;;;;5119201;28;20228;-61
2021/10/13 06:06:17;;;;;;;4.20;2.87;;;;;;;;;;5119541;28;20285;-61
2021/10/13 06:08:45;;;;;;;6.27;2.80;;;;;;;;;;5119228;27;20233;-62
2021/10/13 06:11:13;;;;;;;3.50;2.33;;;;;;;;;;5119695;28;20215;-61
2021/10/13 06:13:42;;;;;;;4.47;2.70;;;;;;;;;;5119160;28;20205;-61
2021/10/13 06:16:12;;;;;;;6.43;3.60;;;;;;;;;;5118983;28;20386;-61
2021/10/13 06:18:41;;;;;;;4.87;2.80;;;;;;;;;;5119134;28;20209;-61
2021/10/13 06:21:09;;;;;;;3.90;2.37;;;;;;;;;;5119415;28;20660;-61
2021/10/13 06:23:37;;;;;;;8.20;2.97;;;;;;;;;;5118675;28;20243;-61
2021/10/13 06:26:05;;;;;;;5.10;2.90;;;;;;;;;;5118981;28;20568;-61
2021/10/13 06:28:33;;;;;;;6.40;2.97;;;;;;;;;;5118797;28;20550;-61
2021/10/13 06:31:01;;;;;;;4.90;2.70;;;;;;;;;;5118575;28;20222;-61
2021/10/13 06:33:32;;;;;;;4.37;2.60;;;;;;;;;;5118651;27;20205;-61
2021/10/13 06:36:04;;;;;;;3.93;2.43;;;;;;;;;;5118995;28;20227;-61
2021/10/13 06:38:32;;;;;;;4.73;3.20;;;;;;;;;;5118672;28;20245;-61
2021/10/13 06:41:00;;;;;;;4.13;2.93;;;;;;;;;;5116440;28;20217;-61
2021/10/13 06:43:28;;;;;;;6.90;3.30;;;;;;;;;;5118746;28;20204;-61
2021/10/13 06:45:56;;;;;;;3.77;2.40;;;;;;;;;;5118496;28;20205;-61
2021/10/13 06:48:24;;;;;;;3.67;3.00;;;;;;;;;;5118348;28;20236;-61
2021/10/13 06:50:54;;;;;;;2.73;2.53;;;;;;;;;;5118362;28;20207;-61
2021/10/13 06:53:21;;;;;;;3.30;2.40;;;;;;;;;;5118842;27;20197;-61
2021/10/13 06:55:49;;;;;;;4.13;2.30;;;;;;;;;;5118472;28;20225;-61
2021/10/13 06:58:17;;;;;;;4.47;2.80;;;;;;;;;;5118330;28;20211;-61
2021/10/13 07:00:45;;;;;;;4.93;2.80;;;;;;;;;;5118018;28;20227;-61
2021/10/13 07:03:14;;;;;;;3.33;2.33;;;;;;;;;;5117947;28;20236;-61
2021/10/13 07:05:42;;;;;;;2.53;2.33;;;;;;;;;;5118080;28;20233;-61
2021/10/13 07:08:11;;;;;;;3.23;2.70;;;;;;;;;;5118059;28;20275;-61
2021/10/13 07:10:39;;;;;;;7.60;2.73;;;;;;;;;;5117919;28;20199;-61
2021/10/13 07:13:07;;;;;;;3.53;2.43;;;;;;;;;;5117848;28;20238;-61
2021/10/13 07:15:36;;;;;;;4.67;2.93;;;;;;;;;;5118116;28;20278;-61
2021/10/13 07:18:04;;;;;;;6.17;3.10;;;;;;;;;;5117562;28;20204;-60
2021/10/13 07:20:32;;;;;;;4.33;2.83;;;;;;;;;;5117978;27;20235;-61
2021/10/13 07:23:00;;;;;;;5.67;2.70;;;;;;;;;;5117802;28;20211;-61
2021/10/13 07:25:30;;;;;;;4.43;2.63;;;;;;;;;;5117736;28;20217;-61
2021/10/13 07:28:01;;;;;;;4.83;2.30;;;;;;;;;;5117778;28;20607;-61
2021/10/13 07:30:30;;;;;;;7.17;2.73;;;;;;;;;;5117747;28;20685;-61
2021/10/13 07:32:58;;;;;;;5.47;2.50;;;;;;;;;;5117304;28;20628;-60
2021/10/13 07:35:27;;;;;;;2.87;2.57;;;;;;;;;;5120882;28;20221;-61
2021/10/13 07:37:56;;;;;;;4.17;2.80;;;;;;;;;;5122142;28;20205;-61
2021/10/13 07:40:25;;;;;;;4.67;2.90;;;;;;;;;;5121394;28;20228;-61
2021/10/13 07:42:55;;;;;;;9.10;3.43;;;;;;;;;;5122217;27;20208;-61
2021/10/13 07:45:22;;;;;;;4.30;3.23;;;;;;;;;;5121906;28;20224;-61
2021/10/13 07:47:51;;;;;;;3.77;2.93;;;;;;;;;;5121103;28;20697;-61
2021/10/13 07:50:19;;;;;;;4.30;2.67;;;;;;;;;;5121627;28;20197;-61
2021/10/13 07:52:47;;;;;;;5.67;2.73;;;;;;;;;;5121454;28;20205;-61
2021/10/13 07:55:15;;;;;;;3.53;2.60;;;;;;;;;;5121808;28;20292;-61
2021/10/13 07:57:43;;;;;;;3.00;2.60;;;;;;;;;;5121583;28;20649;-62
2021/10/13 08:00:13;;;;;;;2.80;2.60;;;;;;;;;;5121409;28;20661;-61
2021/10/13 08:02:45;;;;;;;4.00;2.60;;;;;;;;;;5121670;28;20272;-61
2021/10/13 08:05:13;;;;;;;3.97;2.80;;;;;;;;;;5121325;28;20591;-60
2021/10/13 08:07:41;;;;;;;4.67;2.67;;;;;;;;;;5121536;28;20204;-60
2021/10/13 08:10:10;;;;;;;3.53;2.30;;;;;;;;;;5121720;28;20215;-60
2021/10/13 08:12:38;;;;;;;5.53;3.13;;;;;;;;;;5121502;28;20205;-59
2021/10/13 08:15:07;;;;;;;3.50;3.10;;;;;;;;;;5121376;28;20232;-59
2021/10/13 08:17:36;;;;;;;3.73;2.90;;;;;;;;;;5121006;28;20204;-58
2021/10/13 08:20:07;;;;;;;5.27;2.77;;;;;;;;;;5121201;28;20242;-59
2021/10/13 08:22:36;;;;;;;4.57;2.70;;;;;;;;;;5120987;28;20272;-61
2021/10/13 08:25:04;;;;;;;5.70;2.73;;;;;;;;;;5120774;28;20252;-61
2021/10/13 08:27:32;;;;;;;2.87;2.67;;;;;;;;;;5120767;28;20757;-59
2021/10/13 08:30:00;;;;;;;2.93;2.60;;;;;;;;;;5120981;28;20201;-61
2021/10/13 08:32:28;;;;;;;4.30;2.47;;;;;;;;;;5120663;28;20303;-59
2021/10/13 08:34:57;;;;;;;3.43;2.90;;;;;;;;;;5121068;27;20227;-61
2021/10/13 08:37:25;;;;;;;4.53;2.70;;;;;;;;;;5120929;27;20664;-61
2021/10/13 08:39:53;;;;;;;6.23;2.50;;;;;;;;;;5120662;28;20362;-61
2021/10/13 08:42:22;;;;;;;2.23;2.00;;;;;;;;;;5121023;28;20215;-59
2021/10/13 08:44:50;;;;;;;4.70;2.23;;;;;;;;;;5120415;28;20251;-61
2021/10/13 08:47:18;;;;;;;2.93;2.20;;;;;;;;;;5120481;28;20289;-61
2021/10/13 08:49:46;;;;;;;3.23;2.10;;;;;;;;;;5120766;28;20197;-61
2021/10/13 08:52:16;;;;;;;3.57;2.30;;;;;;;;;;5120686;28;20304;-61
2021/10/13 08:54:44;;;;;;;3.80;2.17;;;;;;;;;;5120613;28;20232;-61
2021/10/13 08:57:15;;;;;;;2.83;2.27;;;;;;;;;;5120382;28;20627;-61
2021/10/13 08:59:45;;;;;;;3.30;2.43;;;;;;;;;;5120540;28;20205;-61
2021/10/13 09:02:13;;;;;;;2.77;1.97;;;;;;;;;;5120373;28;20337;-61
2021/10/13 09:05:04;;;;;;;4.07;2.10;;;;;;;;;;5120741;28;20228;-61
2021/10/13 09:07:34;;;;;;;3.17;2.50;;;;;;;;;;5120639;28;20240;-61
2021/10/13 09:10:02;;;;;;;4.47;2.07;;;;;;;;;;5120543;28;20219;-61
2021/10/13 09:12:30;;;;;;;2.97;2.13;;;;;;;;;;5120196;28;20690;-61
2021/10/13 09:15:09;;;;;;;4.93;2.43;;;;;;;;;;5120069;28;20618;-61
2021/10/13 09:17:59;;;;;;;2.40;2.20;;;;;;;;;;5119944;28;20209;-61
2021/10/13 09:20:28;;;;;;;2.50;2.30;;;;;;;;;;5120126;28;20263;-61
2021/10/13 09:23:02;;;;;;;2.27;2.07;;;;;;;;;;5120446;27;20207;-61
2021/10/13 09:25:30;;;;;;;3.23;2.40;;;;;;;;;;5120175;28;20304;-62
2021/10/13 09:27:59;;;;;;;1.87;1.77;;;;;;;;;;5119684;28;20215;-61
2021/10/13 09:30:28;;;;;;;5.97;2.30;;;;;;;;;;5119862;28;20678;-61
2021/10/13 09:33:08;;;;;;;8.33;2.57;;;;;;;;;;5119681;28;20204;-59
2021/10/13 09:35:41;;;;;;;4.63;2.50;;;;;;;;;;5119700;28;20311;-59
2021/10/13 09:38:12;;;;;;;4.00;2.20;;;;;;;;;;5119825;28;20215;-59
2021/10/13 09:40:40;;;;;;;4.07;2.20;;;;;;;;;;5119582;28;20228;-59
2021/10/13 09:43:09;;;;;;;2.03;1.87;;;;;;;;;;5119630;28;20664;-59
2021/10/13 09:45:38;;;;;;;4.13;2.23;;;;;;;;;;5119341;28;20229;-59
2021/10/13 09:48:07;;;;;;;4.77;2.20;;;;;;;;;;5119022;28;20209;-59
2021/10/13 09:50:39;;;;;;;1.83;1.73;;;;;;;;;;5119477;28;20231;-61
2021/10/13 09:53:22;;;;;;;2.83;2.50;;;;;;;;;;5119049;27;20220;-61
2021/10/13 09:55:51;;;;;;;2.87;2.00;;;;;;;;;;5105891;28;20235;-61
2021/10/13 09:58:23;;;;;;;3.57;2.40;;;;;;;;;;5118533;27;20209;-61
2021/10/13 10:01:06;;;;;;;3.30;2.40;;;;;;;;;;5113640;28;20223;-61
2021/10/13 10:03:44;;;;;;;3.20;2.00;;;;;;;;;;5107486;28;20286;-61
2021/10/13 10:06:13;;;;;;;3.47;2.37;;;;;;;;;;5111262;28;20215;-62
2021/10/13 10:09:01;;;;;;;3.47;2.57;;;;;;;;;;5119100;28;20215;-61
2021/10/13 10:11:29;;;;;;;4.93;2.80;;;;;;;;;;5119283;28;20200;-60
2021/10/13 10:13:58;;;;;;;4.33;2.30;;;;;;;;;;5119493;27;20225;-60
2021/10/13 10:16:30;;;;;;;4.47;2.10;;;;;;;;;;5119146;28;20205;-60
2021/10/13 10:19:17;;;;;;;2.10;1.93;;;;;;;;;;5118880;28;20209;-61
2021/10/13 10:21:52;;;;;;;2.97;2.17;;;;;;;;;;5126235;27;20308;-61
2021/10/13 10:24:28;;;;;;;2.60;2.30;;;;;;;;;;5127941;27;20222;-61
2021/10/13 10:27:15;;;;;;;4.67;2.10;;;;;;;;;;5125769;27;20215;-61
2021/10/13 10:29:43;;;;;;;2.13;1.93;;;;;;;;;;5119069;28;20214;-60
2021/10/13 10:32:15;;;;;;;3.70;2.30;;;;;;;;;;5118236;28;20293;-61
2021/10/13 10:34:57;;;;;;;2.70;2.30;;;;;;;;;;5118866;28;20225;-61
2021/10/13 10:37:37;;;;;;;2.73;2.30;;;;;;;;;;5118388;28;20215;-61
2021/10/13 10:40:07;;;;;;;2.23;2.07;;;;;;;;;;5118387;28;20692;-61
2021/10/13 10:42:52;;;;;;;5.80;2.30;;;;;;;;;;5118932;28;20311;-61
2021/10/13 10:45:21;;;;;;;2.50;2.30;;;;;;;;;;5118426;28;20222;-61
2021/10/13 10:47:51;;;;;;;2.77;2.50;;;;;;;;;;5117993;28;20235;-61
2021/10/13 10:50:40;;;;;;;4.07;2.27;;;;;;;;;;5118419;28;20211;-61
2021/10/13 10:53:09;;;;;;;3.53;2.00;;;;;;;;;;5112267;28;20208;-61
2021/10/13 10:55:40;;;;;;;4.07;2.20;;;;;;;;;;5118139;28;20251;-60
2021/10/13 10:58:15;;;;;;;3.67;2.90;;;;;;;;;;5118070;28;20547;-60
2021/10/13 11:00:44;;;;;;;2.00;1.80;;;;;;;;;;5118008;28;20253;-61
2021/10/13 11:03:19;;;;;;;2.07;1.87;;;;;;;;;;5118133;28;20232;-61
2021/10/13 11:05:53;;;;;;;3.27;2.63;;;;;;;;;;5117926;28;20266;-61
2021/10/13 11:08:21;;;;;;;3.23;2.17;;;;;;;;;;5117904;28;20668;-60
2021/10/13 11:10:51;;;;;;;2.23;2.03;;;;;;;;;;5118122;27;20227;-60
2021/10/13 11:13:23;;;;;;;2.17;1.97;;;;;;;;;;5118196;28;20229;-60
2021/10/13 11:15:51;;;;;;;3.40;2.33;;;;;;;;;;5117943;28;20252;-61
2021/10/13 11:18:19;;;;;;;1.70;1.60;;;;;;;;;;5118077;28;20222;-61
2021/10/13 11:20:48;;;;;;;2.77;1.53;;;;;;;;;;5118188;28;20268;-61
2021/10/13 11:23:18;;;;;;;2.70;1.70;;;;;;;;;;5117922;28;20779;-62
2021/10/13 11:25:46;;;;;;;3.20;2.10;;;;;;;;;;5117616;28;20320;-62
2021/10/13 11:28:16;;;;;;;6.10;2.10;;;;;;;;;;5117784;28;20733;-62
2021/10/13 11:30:45;;;;;;;2.20;1.93;;;;;;;;;;5117880;28;20211;-62
2021/10/13 11:33:14;;;;;;;3.00;2.00;;;;;;;;;;5126239;28;20742;-62
2021/10/13 11:35:44;;;;;;;3.27;1.87;;;;;;;;;;5125489;28;20765;-61
2021/10/13 11:38:14;;;;;;;5.67;2.17;;;;;;;;;;5120286;27;20203;-63
2021/10/13 11:40:42;;;;;;;3.10;1.80;;;;;;;;;;5117737;28;20208;-61
2021/10/13 11:43:13;;;;;;;3.57;2.03;;;;;;;;;;5117750;28;20228;-61
2021/10/13 11:45:48;;;;;;;2.03;1.70;;;;;;;;;;5117419;28;20221;-61
2021/10/13 11:48:22;;;;;;;4.23;1.90;;;;;;;;;;5116989;28;20756;-60
2021/10/13 11:50:52;;;;;;;5.33;1.70;;;;;;;;;;5117526;28;20200;-60
2021/10/13 11:53:21;;;;;;;2.10;1.40;;;;;;;;;;5117411;28;20289;-61
2021/10/13 11:55:49;;;;;;;4.17;1.90;;;;;;;;;;5117338;28;20228;-61
2021/10/13 11:58:23;;;;;;;3.80;1.73;;;;;;;;;;5116932;28;20205;-61
2021/10/13 12:00:52;;;;;;;2.30;2.07;;;;;;;;;;5116271;28;20723;-61
2021/10/13 12:03:27;;;;;;;2.53;1.77;;;;;;;;;;5116567;28;20228;-61
2021/10/13 12:05:58;;;;;;;2.73;1.20;;;;;;;;;;5117124;28;20200;-61
2021/10/13 12:08:27;;;;;;;2.17;1.10;;;;;;;;;;5117102;28;20285;-61
2021/10/13 12:10:56;;;;;;;1.60;1.50;;;;;;;;;;5117086;28;20758;-61
2021/10/13 12:13:27;;;;;;;1.50;1.00;;;;;;;;;;5117565;28;20197;-61
2021/10/13 12:16:20;;;;;;;3.10;1.00;;;;;;;;;;5117399;28;20208;-61
2021/10/13 12:18:49;;;;;;;1.87;1.27;;;;;;;;;;5117296;28;20211;-61
2021/10/13 12:21:20;;;;;;;1.83;1.03;;;;;;;;;;5119983;28;20303;-61
2021/10/13 12:23:50;;;;;;;4.67;1.83;;;;;;;;;;5121041;28;20228;-61
2021/10/13 12:26:19;;;;;;;2.00;1.40;;;;;;;;;;5121242;28;20304;-59
2021/10/13 12:28:48;;;;;;;2.13;1.20;;;;;;;;;;5121044;28;20205;-61
2021/10/13 12:31:20;;;;;;;1.67;1.40;;;;;;;;;;5121342;28;20223;-61
2021/10/13 12:33:49;;;;;;;1.50;1.40;;;;;;;;;;5120768;28;20229;-61
2021/10/13 12:36:18;;;;;;;3.07;1.30;;;;;;;;;;5120908;28;20593;-61
2021/10/13 12:38:48;;;;;;;1.40;1.30;;;;;;;;;;5120888;28;20246;-61
2021/10/13 12:41:17;;;;;;;4.50;2.00;;;;;;;;;;5120584;28;20204;-61
2021/10/13 12:43:46;;;;;;;2.90;1.77;;;;;;;;;;5120544;28;20235;-59
2021/10/13 12:46:29;;;;;;;2.37;1.73;;;;;;;;;;5120627;28;20291;-59
2021/10/13 12:48:58;;;;;;;3.43;1.30;;;;;;;;;;5121004;28;20205;-59
2021/10/13 12:51:50;;;;;;;2.33;1.33;;;;;;;;;;5111712;27;20207;-62
2021/10/13 12:54:18;;;;;;;4.07;1.43;;;;;;;;;;5126741;27;20642;-62
2021/10/13 12:56:46;;;;;;;1.87;1.57;;;;;;;;;;5128599;27;20200;-61
2021/10/13 12:59:14;;;;;;;3.03;1.30;;;;;;;;;;5124769;27;20283;-62
2021/10/13 13:01:44;;;;;;;2.40;1.50;;;;;;;;;;5127336;27;20279;-61
2021/10/13 13:04:12;;;;;;;1.90;1.70;;;;;;;;;;5121887;27;20233;-60
2021/10/13 13:06:40;;;;;;;3.23;1.73;;;;;;;;;;5119896;28;20613;-60
2021/10/13 13:09:09;;;;;;;1.57;1.33;;;;;;;;;;5120660;28;20205;-60
2021/10/13 13:11:37;;;;;;;2.13;1.50;;;;;;;;;;5120605;28;20209;-61
2021/10/13 13:14:05;;;;;;;1.60;1.50;;;;;;;;;;5120184;28;20285;-61
2021/10/13 13:16:33;;;;;;;2.77;1.70;;;;;;;;;;5120162;28;20291;-60
2021/10/13 13:19:03;;;;;;;2.23;1.53;;;;;;;;;;5120417;28;20262;-61
2021/10/13 13:21:31;;;;;;;2.47;1.57;;;;;;;;;;5120197;28;20676;-61
2021/10/13 13:23:59;;;;;;;1.90;1.80;;;;;;;;;;5106445;28;20329;-60
2021/10/13 13:26:27;;;;;;;5.17;3.50;;;;;;;;;;5119869;28;20209;-60
2021/10/13 13:28:55;;;;;;;2.53;2.30;;;;;;;;;;5120496;28;20216;-61
2021/10/13 13:31:23;;;;;;;2.30;1.93;;;;;;;;;;5118907;28;20692;-61
2021/10/13 13:33:51;;;;;;;3.13;2.50;;;;;;;;;;5106979;28;20228;-61
2021/10/13 13:36:21;;;;;;;4.47;2.33;;;;;;;;;;5118084;28;20215;-61
2021/10/13 13:38:55;;;;;;;3.30;1.83;;;;;;;;;;5119476;28;20691;-60
2021/10/13 13:41:23;;;;;;;2.90;1.93;;;;;;;;;;5119912;28;20213;-61
2021/10/13 13:43:51;;;;;;;3.70;3.03;;;;;;;;;;5119606;28;20227;-60
2021/10/13 13:46:20;;;;;;;2.47;2.00;;;;;;;;;;5119467;28;20201;-62
2021/10/13 13:48:49;;;;;;;2.40;1.97;;;;;;;;;;5119870;28;20208;-62
2021/10/13 13:51:17;;;;;;;2.37;1.80;;;;;;;;;;5119567;28;20728;-62
2021/10/13 13:53:47;;;;;;;9.13;2.10;;;;;;;;;;5119375;28;20204;-62
2021/10/13 13:56:15;;;;;;;2.63;2.07;;;;;;;;;;5119117;28;20212;-61
2021/10/13 13:58:43;;;;;;;4.23;1.90;;;;;;;;;;5119499;28;20215;-62
2021/10/13 14:01:11;;;;;;;2.27;1.67;;;;;;;;;;5119438;28;20205;-62
2021/10/13 14:03:39;;;;;;;2.60;1.60;;;;;;;;;;5118955;28;20228;-62
2021/10/13 14:06:07;;;;;;;4.60;2.30;;;;;;;;;;5119403;28;20209;-61
2021/10/13 14:08:35;;;;;;;3.10;1.67;;;;;;;;;;5119170;28;20291;-62
2021/10/13 14:11:04;;;;;;;2.83;1.80;;;;;;;;;;5119205;28;20205;-62
2021/10/13 14:13:32;;;;;;;2.20;2.00;;;;;;;;;;5119196;28;20279;-62
2021/10/13 14:16:01;;;;;;;2.87;2.10;;;;;;;;;;5119163;28;20209;-62
2021/10/13 14:18:29;;;;;;;2.57;1.90;;;;;;;;;;5118683;28;20204;-62
2021/10/13 14:20:57;;;;;;;4.40;1.77;;;;;;;;;;5119238;28;20205;-62
2021/10/13 14:23:25;;;;;;;30.53;4.00;;;;;;;;;;5119043;28;20282;-62
2021/10/13 14:25:53;;;;;;;8.60;2.97;;;;;;;;;;5118794;27;20203;-61
2021/10/13 14:28:22;;;;;;;2.73;1.70;;;;;;;;;;5118772;28;20236;-62
2021/10/13 14:30:51;;;;;;;2.90;1.87;;;;;;;;;;5118630;28;20292;-61
2021/10/13 14:33:39;;;;;;;1.90;1.80;;;;;;;;;;5110325;28;20189;-61
2021/10/13 14:36:07;;;;;;;2.30;2.10;;;;;;;;;;5114263;28;20292;-61
2021/10/13 14:38:35;;;;;;;3.50;2.17;;;;;;;;;;5113245;28;20308;-61
2021/10/13 14:41:03;;;;;;;2.60;2.00;;;;;;;;;;5111912;28;20205;-61
2021/10/13 14:43:33;;;;;;;10.53;2.53;;;;;;;;;;5109368;28;20312;-61
2021/10/13 14:46:01;;;;;;;7.03;2.37;;;;;;;;;;5111062;28;20304;-61
2021/10/13 14:48:29;;;;;;;6.90;2.60;;;;;;;;;;5111463;28;20197;-59
2021/10/13 14:50:57;;;;;;;2.23;1.97;;;;;;;;;;5110455;28;20284;-60
2021/10/13 14:53:25;;;;;;;7.90;2.20;;;;;;;;;;5117873;28;20794;-60
2021/10/13 14:55:54;;;;;;;11.53;3.27;;;;;;;;;;5118388;28;20291;-60
2021/10/13 14:58:22;;;;;;;13.83;2.33;;;;;;;;;;5118760;28;20215;-60